createdAt,value
2017-10-01T00:00:40.500Z,12.00
2017-10-01T00:03:06.821Z,12.10
2017-10-01T00:05:33.151Z,12.10
2017-10-01T00:07:59.870Z,12.10
2017-10-01T00:10:26.198Z,12.10
2017-10-01T00:12:52.494Z,12.00
2017-10-01T00:15:18.805Z,12.00
2017-10-01T00:17:46.056Z,12.00
2017-10-01T00:20:12.361Z,12.00
2017-10-01T00:22:38.694Z,12.10
2017-10-01T00:25:05.042Z,12.10
2017-10-01T00:27:31.370Z,12.00
2017-10-01T00:29:57.669Z,12.00
2017-10-01T00:32:23.984Z,12.00
2017-10-01T00:34:50.289Z,12.30
2017-10-01T00:37:16.814Z,12.00
2017-10-01T00:39:43.902Z,12.00
2017-10-01T00:42:10.256Z,12.00
2017-10-01T00:44:36.667Z,11.90
2017-10-01T00:47:03.806Z,11.90
2017-10-01T00:49:30.312Z,11.90
2017-10-01T00:51:56.627Z,12.20
2017-10-01T00:54:22.970Z,11.80
2017-10-01T00:56:49.311Z,11.80
2017-10-01T00:59:16.386Z,11.80
2017-10-01T01:01:42.707Z,11.80
2017-10-01T01:04:09.092Z,11.80
2017-10-01T01:06:35.432Z,11.70
2017-10-01T01:09:01.733Z,11.70
2017-10-01T01:11:29.233Z,12.00
2017-10-01T01:13:55.606Z,12.10
2017-10-01T01:16:23.056Z,11.60
2017-10-01T01:18:49.485Z,11.60
2017-10-01T01:21:15.762Z,11.40
2017-10-01T01:23:42.064Z,11.50
2017-10-01T01:26:08.460Z,11.50
2017-10-01T01:28:34.819Z,11.40
2017-10-01T01:31:02.593Z,11.60
2017-10-01T01:33:29.244Z,11.50
2017-10-01T01:35:55.730Z,11.30
2017-10-01T01:38:22.049Z,11.40
2017-10-01T01:40:49.118Z,11.40
2017-10-01T01:43:16.426Z,11.40
2017-10-01T01:45:43.338Z,11.40
2017-10-01T01:48:10.383Z,11.30
2017-10-01T01:50:36.688Z,11.30
2017-10-01T01:53:03.018Z,11.20
2017-10-01T01:55:29.349Z,11.10
2017-10-01T01:57:55.660Z,11.00
2017-10-01T02:00:21.958Z,11.10
2017-10-01T02:02:48.272Z,11.00
2017-10-01T02:05:14.578Z,11.00
2017-10-01T02:07:41.468Z,11.00
2017-10-01T02:10:08.607Z,10.90
2017-10-01T02:12:34.998Z,10.80
2017-10-01T02:15:01.406Z,10.90
2017-10-01T02:17:27.778Z,10.80
2017-10-01T02:19:54.816Z,10.80
2017-10-01T02:22:21.117Z,10.80
2017-10-01T02:24:47.421Z,10.80
2017-10-01T02:27:14.485Z,10.70
2017-10-01T02:29:40.809Z,10.70
2017-10-01T02:32:07.155Z,10.60
2017-10-01T02:34:33.603Z,10.60
2017-10-01T02:37:00.059Z,10.60
2017-10-01T02:39:26.492Z,10.50
2017-10-01T02:41:53.103Z,10.50
2017-10-01T02:44:19.454Z,10.50
2017-10-01T02:46:46.068Z,10.40
2017-10-01T02:49:12.467Z,10.40
2017-10-01T02:51:39.190Z,9.90
2017-10-01T02:54:06.200Z,10.30
2017-10-01T02:56:32.523Z,10.60
2017-10-01T02:58:58.872Z,10.20
2017-10-01T03:01:25.313Z,10.70
2017-10-01T03:03:51.654Z,10.30
2017-10-01T03:06:17.956Z,10.20
2017-10-01T03:08:44.301Z,10.10
2017-10-01T03:11:10.689Z,10.20
2017-10-01T03:13:37.733Z,10.20
2017-10-01T03:16:04.037Z,10.20
2017-10-01T03:18:30.901Z,10.20
2017-10-01T03:20:57.978Z,10.20
2017-10-01T03:23:24.266Z,10.20
2017-10-01T03:25:51.292Z,10.20
2017-10-01T03:28:17.632Z,10.20
2017-10-01T03:30:43.962Z,10.10
2017-10-01T03:33:10.257Z,10.30
2017-10-01T03:35:36.564Z,10.10
2017-10-01T03:38:02.922Z,10.10
2017-10-01T03:40:29.973Z,10.00
2017-10-01T03:42:56.277Z,9.90
2017-10-01T03:45:22.584Z,10.10
2017-10-01T03:47:49.640Z,9.90
2017-10-01T03:50:16.091Z,9.90
2017-10-01T03:52:43.132Z,9.80
2017-10-01T03:55:09.424Z,9.70
2017-10-01T03:57:35.729Z,9.80
2017-10-01T04:00:02.066Z,9.80
2017-10-01T04:02:29.099Z,9.60
2017-10-01T04:04:55.382Z,9.60
2017-10-01T04:07:22.401Z,9.60
2017-10-01T04:09:48.682Z,9.60
2017-10-01T04:12:15.715Z,9.60
2017-10-01T04:14:42.004Z,9.80
2017-10-01T04:17:08.308Z,9.60
2017-10-01T04:19:34.742Z,9.50
2017-10-01T04:22:01.042Z,9.50
2017-10-01T04:24:27.361Z,9.40
2017-10-01T04:26:53.667Z,9.40
2017-10-01T04:29:20.366Z,9.30
2017-10-01T04:31:46.664Z,9.40
2017-10-01T04:34:12.995Z,9.30
2017-10-01T04:36:39.289Z,9.30
2017-10-01T04:39:05.573Z,9.20
2017-10-01T04:41:31.932Z,9.30
2017-10-01T04:43:58.953Z,9.30
2017-10-01T04:46:25.262Z,9.30
2017-10-01T04:48:51.560Z,9.30
2017-10-01T04:51:17.858Z,9.30
2017-10-01T04:53:44.168Z,9.30
2017-10-01T04:56:11.218Z,9.20
2017-10-01T04:58:37.513Z,9.20
2017-10-01T05:01:04.066Z,9.20
2017-10-01T05:03:30.360Z,8.90
2017-10-01T05:05:57.416Z,9.20
2017-10-01T05:08:24.237Z,9.20
2017-10-01T05:10:50.532Z,9.20
2017-10-01T05:13:16.842Z,9.20
2017-10-01T05:15:43.107Z,9.20
2017-10-01T05:18:09.405Z,9.20
2017-10-01T05:20:35.690Z,9.20
2017-10-01T05:23:02.744Z,9.20
2017-10-01T05:25:29.777Z,9.20
2017-10-01T05:27:56.062Z,9.20
2017-10-01T05:30:23.121Z,9.20
2017-10-01T05:32:50.160Z,9.20
2017-10-01T05:35:16.765Z,9.20
2017-10-01T05:37:43.807Z,9.30
2017-10-01T05:40:10.105Z,9.30
2017-10-01T05:42:36.402Z,9.30
2017-10-01T05:45:02.717Z,9.40
2017-10-01T05:47:29.917Z,9.50
2017-10-01T05:49:56.945Z,9.50
2017-10-01T05:52:23.247Z,9.50
2017-10-01T05:54:49.553Z,9.50
2017-10-01T05:57:15.970Z,9.60
2017-10-01T05:59:43.178Z,9.60
2017-10-01T06:02:10.273Z,9.60
2017-10-01T06:04:36.641Z,9.60
2017-10-01T06:07:03.692Z,9.60
2017-10-01T06:09:29.990Z,9.60
2017-10-01T06:11:56.321Z,9.80
2017-10-01T06:14:22.630Z,9.60
2017-10-01T06:16:49.660Z,9.50
2017-10-01T06:19:16.730Z,9.60
2017-10-01T06:21:43.068Z,9.40
2017-10-01T06:24:10.134Z,9.60
2017-10-01T06:26:36.533Z,9.60
2017-10-01T06:29:02.891Z,9.60
2017-10-01T06:31:29.218Z,9.80
2017-10-01T06:33:55.515Z,9.60
2017-10-01T06:36:22.560Z,9.70
2017-10-01T06:38:48.887Z,9.70
2017-10-01T06:41:15.247Z,9.70
2017-10-01T06:43:41.890Z,9.70
2017-10-01T06:46:08.181Z,9.80
2017-10-01T06:48:34.475Z,9.90
2017-10-01T06:51:01.106Z,9.90
2017-10-01T06:53:29.109Z,9.90
2017-10-01T06:55:55.413Z,10.00
2017-10-01T06:58:21.752Z,10.00
2017-10-01T07:00:48.046Z,10.40
2017-10-01T07:03:15.107Z,10.10
2017-10-01T07:05:42.173Z,10.20
2017-10-01T07:08:09.217Z,10.20
2017-10-01T07:10:35.923Z,10.20
2017-10-01T07:13:02.432Z,10.50
2017-10-01T07:15:28.773Z,10.20
2017-10-01T07:17:55.833Z,10.40
2017-10-01T07:20:22.059Z,10.40
2017-10-01T07:22:48.326Z,10.50
2017-10-01T07:25:15.367Z,10.60
2017-10-01T07:27:41.660Z,10.60
2017-10-01T07:30:08.364Z,10.70
2017-10-01T07:32:34.636Z,10.50
2017-10-01T07:35:00.959Z,10.70
2017-10-01T07:37:28.013Z,10.90
2017-10-01T07:39:54.341Z,10.90
2017-10-01T07:42:20.654Z,11.00
2017-10-01T07:44:46.980Z,11.20
2017-10-01T07:47:13.314Z,11.40
2017-10-01T07:49:39.674Z,11.20
2017-10-01T07:52:05.976Z,11.30
2017-10-01T07:54:32.285Z,11.40
2017-10-01T07:56:58.640Z,11.50
2017-10-01T07:59:24.978Z,11.60
2017-10-01T08:01:51.284Z,11.80
2017-10-01T08:04:17.594Z,11.90
2017-10-01T08:06:43.998Z,11.90
2017-10-01T08:09:10.290Z,12.00
2017-10-01T08:11:38.081Z,12.20
2017-10-01T08:14:05.089Z,12.50
2017-10-01T08:16:31.445Z,12.40
2017-10-01T08:18:57.766Z,12.50
2017-10-01T08:21:24.041Z,12.70
2017-10-01T08:23:50.871Z,12.70
2017-10-01T08:26:17.173Z,12.90
2017-10-01T08:28:43.493Z,13.10
2017-10-01T08:31:10.546Z,13.10
2017-10-01T08:33:37.588Z,13.20
2017-10-01T08:36:04.064Z,13.20
2017-10-01T08:38:30.374Z,13.70
2017-10-01T08:40:56.688Z,13.40
2017-10-01T08:43:22.985Z,13.20
2017-10-01T08:45:49.310Z,13.40
2017-10-01T08:48:15.641Z,13.60
2017-10-01T08:50:42.365Z,13.70
2017-10-01T08:53:08.664Z,13.70
2017-10-01T08:55:34.961Z,13.90
2017-10-01T08:58:05.331Z,14.00
2017-10-01T09:00:32.363Z,14.10
2017-10-01T09:03:03.751Z,14.20
2017-10-01T09:05:30.955Z,14.20
2017-10-01T09:07:57.428Z,14.00
2017-10-01T09:10:23.774Z,14.30
2017-10-01T09:12:50.118Z,14.30
2017-10-01T09:15:16.475Z,14.30
2017-10-01T09:17:43.934Z,14.40
2017-10-01T09:20:10.406Z,14.40
2017-10-01T09:22:36.753Z,14.30
2017-10-01T09:25:03.064Z,14.60
2017-10-01T09:27:29.394Z,14.50
2017-10-01T09:29:55.685Z,14.60
2017-10-01T09:32:22.324Z,14.60
2017-10-01T09:34:48.672Z,14.60
2017-10-01T09:37:14.972Z,14.60
2017-10-01T09:39:41.363Z,14.70
2017-10-01T09:42:07.665Z,14.60
2017-10-01T09:44:33.957Z,14.90
2017-10-01T09:47:00.285Z,15.00
2017-10-01T09:49:26.641Z,15.40
2017-10-01T09:51:53.744Z,15.20
2017-10-01T09:54:20.049Z,15.10
2017-10-01T09:56:46.464Z,15.40
2017-10-01T09:59:12.799Z,15.40
2017-10-01T10:01:39.106Z,15.50
2017-10-01T10:04:06.178Z,15.80
2017-10-01T10:06:32.670Z,15.80
2017-10-01T10:08:58.995Z,15.80
2017-10-01T10:11:25.293Z,15.80
2017-10-01T10:13:51.601Z,15.90
2017-10-01T10:16:17.888Z,16.00
2017-10-01T10:18:44.936Z,16.00
2017-10-01T10:21:11.226Z,16.00
2017-10-01T10:23:37.521Z,16.00
2017-10-01T10:26:03.816Z,16.00
2017-10-01T10:28:30.857Z,15.90
2017-10-01T10:30:57.874Z,15.70
2017-10-01T10:33:24.545Z,15.70
2017-10-01T10:35:50.925Z,15.80
2017-10-01T10:38:17.225Z,15.90
2017-10-01T10:40:43.503Z,16.00
2017-10-01T10:43:09.806Z,16.00
2017-10-01T10:45:36.098Z,16.20
2017-10-01T10:48:02.390Z,16.50
2017-10-01T10:50:28.991Z,16.60
2017-10-01T10:52:55.305Z,16.40
2017-10-01T10:55:22.380Z,16.30
2017-10-01T10:57:48.689Z,16.40
2017-10-01T11:00:15.757Z,16.50
2017-10-01T11:02:42.030Z,16.40
2017-10-01T11:05:08.325Z,16.50
2017-10-01T11:07:35.385Z,16.60
2017-10-01T11:10:01.703Z,16.80
2017-10-01T11:12:27.990Z,17.00
2017-10-01T11:14:55.024Z,16.90
2017-10-01T11:17:21.333Z,16.90
2017-10-01T11:19:47.635Z,16.90
2017-10-01T11:22:14.674Z,17.20
2017-10-01T11:24:41.723Z,17.10
2017-10-01T11:27:08.025Z,17.30
2017-10-01T11:29:34.322Z,17.00
2017-10-01T11:32:01.385Z,16.80
2017-10-01T11:34:27.667Z,16.80
2017-10-01T11:36:53.973Z,16.90
2017-10-01T11:39:21.018Z,17.10
2017-10-01T11:41:47.329Z,17.10
2017-10-01T11:44:13.629Z,17.20
2017-10-01T11:46:40.660Z,17.50
2017-10-01T11:49:06.972Z,17.40
2017-10-01T11:51:33.314Z,17.60
2017-10-01T11:53:59.645Z,17.70
2017-10-01T11:56:25.932Z,17.40
2017-10-01T11:58:52.288Z,17.50
2017-10-01T12:01:18.597Z,17.30
2017-10-01T12:03:44.886Z,17.30
2017-10-01T12:06:11.969Z,17.30
2017-10-01T12:08:38.311Z,17.20
2017-10-01T12:11:05.367Z,17.30
2017-10-01T12:13:32.444Z,17.60
2017-10-01T12:15:58.833Z,17.60
2017-10-01T12:18:25.145Z,18.00
2017-10-01T12:20:52.999Z,18.00
2017-10-01T12:23:19.293Z,17.60
2017-10-01T12:25:45.594Z,17.70
2017-10-01T12:28:11.877Z,17.90
2017-10-01T12:30:38.188Z,18.30
2017-10-01T12:33:04.481Z,18.00
2017-10-01T12:35:30.832Z,18.20
2017-10-01T12:37:57.128Z,18.40
2017-10-01T12:40:23.417Z,18.10
2017-10-01T12:42:49.816Z,18.20
2017-10-01T12:45:16.170Z,18.40
2017-10-01T12:47:42.446Z,17.90
2017-10-01T12:50:08.793Z,17.80
2017-10-01T12:52:35.114Z,17.80
2017-10-01T12:55:02.148Z,18.00
2017-10-01T12:57:28.522Z,17.80
2017-10-01T12:59:54.875Z,18.00
2017-10-01T13:02:21.972Z,18.30
2017-10-01T13:04:49.013Z,18.10
2017-10-01T13:07:15.396Z,18.10
2017-10-01T13:09:47.813Z,18.00
2017-10-01T13:12:14.172Z,18.00
2017-10-01T13:14:40.530Z,18.20
2017-10-01T13:17:06.888Z,18.00
2017-10-01T13:19:33.206Z,17.90
2017-10-01T13:21:59.515Z,17.90
2017-10-01T13:24:25.830Z,17.90
2017-10-01T13:26:52.361Z,17.80
2017-10-01T13:29:19.494Z,18.20
2017-10-01T13:31:45.796Z,18.60
2017-10-01T13:34:12.154Z,18.20
2017-10-01T13:36:38.477Z,18.20
2017-10-01T13:39:04.771Z,18.10
2017-10-01T13:41:34.366Z,18.00
2017-10-01T13:44:00.682Z,17.90
2017-10-01T13:46:27.158Z,17.80
2017-10-01T13:48:53.495Z,18.30
2017-10-01T13:51:19.819Z,18.50
2017-10-01T13:53:46.098Z,18.30
2017-10-01T13:56:13.165Z,18.40
2017-10-01T13:58:40.218Z,18.40
2017-10-01T14:01:06.525Z,18.30
2017-10-01T14:03:32.753Z,18.20
2017-10-01T14:05:59.073Z,18.30
2017-10-01T14:08:25.390Z,18.30
2017-10-01T14:10:52.485Z,17.90
2017-10-01T14:13:19.621Z,18.10
2017-10-01T14:15:45.965Z,18.00
2017-10-01T14:18:12.903Z,17.90
2017-10-01T14:20:39.025Z,17.90
2017-10-01T14:23:05.113Z,17.80
2017-10-01T14:25:31.230Z,18.00
2017-10-01T14:27:58.060Z,17.70
2017-10-01T14:30:24.222Z,17.70
2017-10-01T14:32:50.539Z,17.80
2017-10-01T14:35:17.019Z,18.10
2017-10-01T14:37:43.108Z,17.90
2017-10-01T14:40:09.215Z,17.90
2017-10-01T14:42:35.512Z,18.10
2017-10-01T14:45:01.818Z,17.90
2017-10-01T14:47:32.665Z,17.90
2017-10-01T14:49:59.542Z,18.30
2017-10-01T14:52:25.617Z,18.30
2017-10-01T14:54:51.880Z,18.50
2017-10-01T14:57:17.974Z,18.10
2017-10-01T14:59:44.828Z,18.00
2017-10-01T15:02:11.681Z,17.90
2017-10-01T15:04:37.824Z,17.90
2017-10-01T15:07:04.739Z,17.90
2017-10-01T15:09:30.860Z,17.80
2017-10-01T15:11:56.996Z,17.90
2017-10-01T15:14:23.113Z,17.70
2017-10-01T15:16:49.233Z,17.80
2017-10-01T15:19:16.157Z,17.50
2017-10-01T15:21:42.282Z,17.50
2017-10-01T15:24:09.163Z,17.20
2017-10-01T15:26:35.301Z,17.20
2017-10-01T15:29:02.160Z,17.20
2017-10-01T15:31:29.042Z,17.10
2017-10-01T15:33:55.173Z,17.10
2017-10-01T15:36:22.026Z,17.10
2017-10-01T15:38:48.153Z,17.10
2017-10-01T15:41:14.990Z,17.00
2017-10-01T15:43:41.143Z,17.00
2017-10-01T15:46:07.286Z,17.10
2017-10-01T15:48:33.401Z,17.00
2017-10-01T15:50:59.525Z,17.10
2017-10-01T15:53:25.722Z,17.10
2017-10-01T15:55:51.828Z,17.00
2017-10-01T15:58:17.941Z,17.20
2017-10-01T16:00:44.033Z,16.90
2017-10-01T16:03:10.939Z,16.90
2017-10-01T16:05:37.036Z,16.90
2017-10-01T16:08:03.883Z,16.80
2017-10-01T16:10:30.735Z,16.70
2017-10-01T16:12:56.835Z,16.70
2017-10-01T16:15:22.963Z,16.70
2017-10-01T16:17:49.088Z,16.50
2017-10-01T16:20:15.955Z,16.50
2017-10-01T16:22:42.070Z,16.50
2017-10-01T16:25:08.172Z,16.40
2017-10-01T16:27:34.346Z,16.40
2017-10-01T16:30:04.815Z,16.40
2017-10-01T16:32:31.044Z,16.30
2017-10-01T16:34:57.156Z,16.30
2017-10-01T16:37:23.379Z,16.30
2017-10-01T16:39:50.233Z,16.20
2017-10-01T16:42:17.113Z,16.20
2017-10-01T16:44:43.248Z,16.20
2017-10-01T16:47:09.410Z,16.30
2017-10-01T16:49:35.562Z,15.80
2017-10-01T16:52:01.688Z,16.10
2017-10-01T16:54:27.840Z,16.10
2017-10-01T16:56:54.025Z,16.10
2017-10-01T16:59:20.279Z,16.10
2017-10-01T17:01:46.450Z,16.00
2017-10-01T17:04:12.581Z,15.80
2017-10-01T17:06:38.826Z,16.00
2017-10-01T17:09:04.989Z,15.90
2017-10-01T17:11:31.146Z,15.90
2017-10-01T17:13:57.299Z,16.10
2017-10-01T17:16:23.533Z,15.90
2017-10-01T17:18:49.801Z,15.70
2017-10-01T17:21:16.089Z,15.70
2017-10-01T17:23:42.282Z,15.60
2017-10-01T17:26:08.424Z,15.40
2017-10-01T17:28:34.809Z,15.60
2017-10-01T17:31:01.335Z,15.60
2017-10-01T17:33:27.643Z,15.60
2017-10-01T17:35:54.033Z,15.60
2017-10-01T17:38:20.369Z,15.10
2017-10-01T17:40:47.421Z,15.40
2017-10-01T17:43:13.806Z,15.60
2017-10-01T17:45:40.195Z,15.50
2017-10-01T17:48:07.109Z,15.40
2017-10-01T17:50:34.331Z,15.40
2017-10-01T17:53:00.736Z,15.30
2017-10-01T17:55:27.136Z,15.40
2017-10-01T17:57:53.460Z,15.30
2017-10-01T18:00:20.545Z,15.30
2017-10-01T18:02:47.624Z,15.20
2017-10-01T18:05:14.089Z,15.20
2017-10-01T18:07:41.146Z,15.20
2017-10-01T18:10:07.551Z,15.30
2017-10-01T18:12:33.908Z,15.20
2017-10-01T18:15:00.470Z,15.10
2017-10-01T18:17:26.870Z,15.10
2017-10-01T18:19:53.222Z,15.10
2017-10-01T18:22:19.657Z,15.10
2017-10-01T18:24:48.195Z,15.10
2017-10-01T18:27:14.855Z,15.00
2017-10-01T18:29:41.251Z,15.10
2017-10-01T18:32:07.683Z,15.10
2017-10-01T18:34:34.084Z,15.10
2017-10-01T18:37:00.475Z,15.10
2017-10-01T18:39:27.097Z,15.30
2017-10-01T18:41:53.470Z,14.90
2017-10-01T18:44:20.184Z,15.20
2017-10-01T18:46:46.940Z,15.20
2017-10-01T18:49:14.144Z,15.10
2017-10-01T18:51:40.508Z,15.10
2017-10-01T18:54:06.881Z,15.10
2017-10-01T18:56:33.268Z,15.10
2017-10-01T18:58:59.695Z,15.10
2017-10-01T19:01:26.157Z,15.00
2017-10-01T19:03:52.485Z,15.10
2017-10-01T19:06:18.808Z,15.00
2017-10-01T19:08:45.944Z,14.90
2017-10-01T19:11:12.400Z,14.90
2017-10-01T19:13:38.725Z,14.90
2017-10-01T19:16:05.129Z,15.00
2017-10-01T19:18:31.509Z,15.00
2017-10-01T19:20:57.917Z,15.00
2017-10-01T19:23:24.306Z,15.00
2017-10-01T19:25:50.635Z,15.20
2017-10-01T19:28:17.078Z,14.90
2017-10-01T19:30:43.382Z,14.90
2017-10-01T19:33:10.490Z,14.90
2017-10-01T19:35:36.802Z,14.90
2017-10-01T19:38:03.231Z,14.80
2017-10-01T19:40:29.572Z,15.10
2017-10-01T19:42:55.923Z,14.80
2017-10-01T19:45:22.578Z,14.80
2017-10-01T19:47:49.175Z,14.80
2017-10-01T19:50:15.597Z,14.60
2017-10-01T19:52:41.946Z,14.90
2017-10-01T19:55:08.321Z,14.90
2017-10-01T19:57:34.909Z,14.80
2017-10-01T20:00:01.318Z,14.80
2017-10-01T20:02:27.663Z,14.80
2017-10-01T20:04:54.034Z,14.70
2017-10-01T20:07:20.806Z,14.80
2017-10-01T20:09:47.273Z,14.80
2017-10-01T20:12:13.786Z,14.60
2017-10-01T20:14:40.894Z,14.80
2017-10-01T20:17:08.421Z,14.80
2017-10-01T20:19:34.751Z,14.80
2017-10-01T20:22:01.274Z,15.10
2017-10-01T20:24:27.657Z,14.70
2017-10-01T20:26:54.004Z,14.70
2017-10-01T20:29:21.081Z,14.80
2017-10-01T20:31:47.413Z,14.70
2017-10-01T20:37:10.495Z,14.80
2017-10-01T20:39:36.877Z,14.80
2017-10-01T20:42:04.041Z,14.80
2017-10-01T20:44:31.118Z,14.70
2017-10-01T20:46:57.469Z,14.70
2017-10-01T20:49:24.616Z,14.90
2017-10-01T20:51:50.947Z,14.90
2017-10-01T20:54:17.351Z,15.10
2017-10-01T20:56:44.502Z,14.90
2017-10-01T20:59:10.914Z,14.90
2017-10-01T21:01:37.254Z,14.90
2017-10-01T21:04:03.625Z,14.90
2017-10-01T21:06:30.716Z,14.90
2017-10-01T21:08:57.122Z,14.90
2017-10-01T21:11:24.297Z,15.00
2017-10-01T21:13:52.067Z,14.90
2017-10-01T21:16:18.467Z,14.60
2017-10-01T21:18:44.910Z,15.00
2017-10-01T21:21:12.041Z,14.90
2017-10-01T21:23:38.396Z,14.90
2017-10-01T21:26:05.504Z,14.60
2017-10-01T21:28:31.942Z,14.90
2017-10-01T21:30:58.313Z,15.00
2017-10-01T21:33:24.653Z,15.00
2017-10-01T21:35:51.725Z,14.70
2017-10-01T21:38:18.295Z,15.00
2017-10-01T21:40:45.408Z,15.00
2017-10-01T21:43:11.801Z,15.00
2017-10-01T21:45:38.126Z,15.00
2017-10-01T21:48:04.709Z,15.00
2017-10-01T21:50:31.381Z,15.00
2017-10-01T21:52:57.764Z,15.00
2017-10-01T21:55:24.847Z,15.00
2017-10-01T21:57:51.397Z,15.00
2017-10-01T22:00:17.759Z,15.20
2017-10-01T22:02:44.158Z,15.20
2017-10-01T22:05:10.485Z,15.10
2017-10-01T22:07:36.882Z,15.00
2017-10-01T22:10:03.201Z,15.10
2017-10-01T22:12:29.526Z,15.00
2017-10-01T22:14:56.682Z,15.00
2017-10-01T22:17:23.036Z,15.00
2017-10-01T22:19:50.102Z,14.90
2017-10-01T22:22:16.591Z,14.90
2017-10-01T22:24:42.950Z,14.90
2017-10-01T22:27:09.301Z,14.90
2017-10-01T22:29:36.353Z,14.90
2017-10-01T22:32:02.716Z,14.70
2017-10-01T22:34:29.092Z,15.30
2017-10-01T22:36:55.454Z,15.10
2017-10-01T22:39:21.778Z,15.00
2017-10-01T22:41:48.826Z,15.10
2017-10-01T22:44:15.339Z,15.00
2017-10-01T22:46:42.346Z,14.90
2017-10-01T22:49:08.702Z,14.90
2017-10-01T22:51:35.069Z,14.90
2017-10-01T22:54:01.386Z,14.80
2017-10-01T22:56:27.823Z,14.80
2017-10-01T22:58:54.180Z,14.70
2017-10-01T23:01:20.519Z,14.90
2017-10-01T23:03:46.852Z,14.90
2017-10-01T23:06:13.170Z,14.90
2017-10-01T23:08:39.513Z,14.90
2017-10-01T23:11:05.806Z,14.90
2017-10-01T23:13:32.131Z,14.90
2017-10-01T23:15:58.492Z,14.90
2017-10-01T23:18:24.817Z,14.90
2017-10-01T23:20:51.176Z,15.40
2017-10-01T23:23:17.604Z,14.90
2017-10-01T23:25:44.695Z,14.80
2017-10-01T23:28:11.013Z,14.80
2017-10-01T23:30:37.344Z,14.90
2017-10-01T23:33:03.644Z,14.80
2017-10-01T23:35:30.709Z,15.00
2017-10-01T23:37:57.775Z,14.90
2017-10-01T23:40:23.983Z,14.90
2017-10-01T23:42:50.344Z,14.90
2017-10-01T23:45:16.674Z,14.80
2017-10-01T23:47:43.202Z,14.40
2017-10-01T23:50:09.592Z,15.00
2017-10-01T23:52:35.942Z,14.70
2017-10-01T23:55:02.299Z,14.70
2017-10-01T23:57:28.715Z,15.00
2017-10-01T23:59:55.792Z,14.70
